sensor_id;sensor_type;location;lat;lon;timestamp;P1;durP1;ratioP1;P2;durP2;ratioP2
47922;SDS011;33688;44.354;9.228;2023-11-21T00:01:54;2.20;;;1.70;;
47922;SDS011;33688;44.354;9.228;2023-11-21T00:04:20;3.05;;;2.30;;
47922;SDS011;33688;44.354;9.228;2023-11-21T00:06:46;4.00;;;2.33;;
47922;SDS011;33688;44.354;9.228;2023-11-21T00:09:12;2.60;;;2.10;;
47922;SDS011;33688;44.354;9.228;2023-11-21T00:11:41;3.40;;;2.47;;
47922;SDS011;33688;44.354;9.228;2023-11-21T00:14:07;2.65;;;1.80;;
47922;SDS011;33688;44.354;9.228;2023-11-21T00:16:34;2.30;;;2.10;;
47922;SDS011;33688;44.354;9.228;2023-11-21T00:19:00;3.47;;;2.10;;
47922;SDS011;33688;44.354;9.228;2023-11-21T00:21:26;2.85;;;2.20;;
47922;SDS011;33688;44.354;9.228;2023-11-21T00:23:51;4.85;;;1.98;;
47922;SDS011;33688;44.354;9.228;2023-11-21T00:26:17;2.75;;;2.00;;
47922;SDS011;33688;44.354;9.228;2023-11-21T00:28:49;2.90;;;1.85;;
47922;SDS011;33688;44.354;9.228;2023-11-21T00:31:15;1.85;;;1.48;;
47922;SDS011;33688;44.354;9.228;2023-11-21T00:33:42;2.83;;;1.85;;
47922;SDS011;33688;44.354;9.228;2023-11-21T00:36:08;3.00;;;2.03;;
47922;SDS011;33688;44.354;9.228;2023-11-21T00:38:37;2.45;;;1.90;;
47922;SDS011;33688;44.354;9.228;2023-11-21T00:41:06;2.22;;;1.83;;
47922;SDS011;33688;44.354;9.228;2023-11-21T00:43:32;2.95;;;2.30;;
47922;SDS011;33688;44.354;9.228;2023-11-21T00:46:03;3.15;;;1.98;;
47922;SDS011;33688;44.354;9.228;2023-11-21T00:48:32;2.92;;;2.10;;
47922;SDS011;33688;44.354;9.228;2023-11-21T00:50:59;2.67;;;1.92;;
47922;SDS011;33688;44.354;9.228;2023-11-21T00:53:26;2.40;;;2.13;;
47922;SDS011;33688;44.354;9.228;2023-11-21T00:55:51;1.98;;;1.60;;
47922;SDS011;33688;44.354;9.228;2023-11-21T00:58:23;3.45;;;2.38;;
47922;SDS011;33688;44.354;9.228;2023-11-21T01:00:49;2.58;;;2.13;;
47922;SDS011;33688;44.354;9.228;2023-11-21T01:03:15;2.65;;;1.90;;
47922;SDS011;33688;44.354;9.228;2023-11-21T01:05:41;3.20;;;2.15;;
47922;SDS011;33688;44.354;9.228;2023-11-21T01:08:07;2.75;;;2.22;;
47922;SDS011;33688;44.354;9.228;2023-11-21T01:10:33;2.55;;;2.20;;
47922;SDS011;33688;44.354;9.228;2023-11-21T01:13:01;3.78;;;2.65;;
47922;SDS011;33688;44.354;9.228;2023-11-21T01:15:30;4.70;;;2.47;;
47922;SDS011;33688;44.354;9.228;2023-11-21T01:17:56;3.15;;;1.95;;
47922;SDS011;33688;44.354;9.228;2023-11-21T01:20:22;2.92;;;2.15;;
47922;SDS011;33688;44.354;9.228;2023-11-21T01:22:48;2.92;;;1.60;;
47922;SDS011;33688;44.354;9.228;2023-11-21T01:25:16;3.17;;;1.95;;
47922;SDS011;33688;44.354;9.228;2023-11-21T01:27:42;2.55;;;1.98;;
47922;SDS011;33688;44.354;9.228;2023-11-21T01:30:08;2.28;;;1.77;;
47922;SDS011;33688;44.354;9.228;2023-11-21T01:32:37;2.78;;;1.98;;
47922;SDS011;33688;44.354;9.228;2023-11-21T01:35:04;4.30;;;2.22;;
47922;SDS011;33688;44.354;9.228;2023-11-21T01:37:31;3.47;;;2.22;;
47922;SDS011;33688;44.354;9.228;2023-11-21T01:39:59;2.83;;;2.10;;
47922;SDS011;33688;44.354;9.228;2023-11-21T01:42:27;3.15;;;1.90;;
47922;SDS011;33688;44.354;9.228;2023-11-21T01:44:54;3.05;;;1.65;;
47922;SDS011;33688;44.354;9.228;2023-11-21T01:47:20;2.25;;;1.90;;
47922;SDS011;33688;44.354;9.228;2023-11-21T01:49:46;3.10;;;2.05;;
47922;SDS011;33688;44.354;9.228;2023-11-21T01:52:15;1.98;;;1.50;;
47922;SDS011;33688;44.354;9.228;2023-11-21T01:54:41;2.92;;;1.85;;
47922;SDS011;33688;44.354;9.228;2023-11-21T01:57:07;3.17;;;2.00;;
47922;SDS011;33688;44.354;9.228;2023-11-21T01:59:34;1.90;;;1.50;;
47922;SDS011;33688;44.354;9.228;2023-11-21T02:02:06;2.47;;;1.83;;
47922;SDS011;33688;44.354;9.228;2023-11-21T02:04:34;2.42;;;2.03;;
47922;SDS011;33688;44.354;9.228;2023-11-21T02:07:03;2.17;;;1.55;;
47922;SDS011;33688;44.354;9.228;2023-11-21T02:09:32;3.15;;;2.03;;
47922;SDS011;33688;44.354;9.228;2023-11-21T02:11:59;1.92;;;1.67;;
47922;SDS011;33688;44.354;9.228;2023-11-21T02:14:26;2.38;;;2.03;;
47922;SDS011;33688;44.354;9.228;2023-11-21T02:16:53;2.72;;;1.77;;
47922;SDS011;33688;44.354;9.228;2023-11-21T02:19:22;2.28;;;1.58;;
47922;SDS011;33688;44.354;9.228;2023-11-21T02:21:53;2.00;;;1.67;;
47922;SDS011;33688;44.354;9.228;2023-11-21T02:24:23;1.90;;;1.52;;
47922;SDS011;33688;44.354;9.228;2023-11-21T02:26:50;2.25;;;1.98;;
47922;SDS011;33688;44.354;9.228;2023-11-21T02:29:17;2.58;;;1.95;;
47922;SDS011;33688;44.354;9.228;2023-11-21T02:31:54;2.03;;;1.67;;
47922;SDS011;33688;44.354;9.228;2023-11-21T02:34:20;2.28;;;1.50;;
47922;SDS011;33688;44.354;9.228;2023-11-21T02:36:48;2.65;;;1.88;;
47922;SDS011;33688;44.354;9.228;2023-11-21T02:39:33;1.67;;;1.52;;
47922;SDS011;33688;44.354;9.228;2023-11-21T02:42:00;1.77;;;1.55;;
47922;SDS011;33688;44.354;9.228;2023-11-21T02:44:26;2.83;;;1.88;;
47922;SDS011;33688;44.354;9.228;2023-11-21T02:46:51;2.55;;;1.70;;
47922;SDS011;33688;44.354;9.228;2023-11-21T02:49:17;2.35;;;1.80;;
47922;SDS011;33688;44.354;9.228;2023-11-21T02:51:43;1.60;;;1.40;;
47922;SDS011;33688;44.354;9.228;2023-11-21T02:54:09;1.33;;;1.23;;
47922;SDS011;33688;44.354;9.228;2023-11-21T02:56:35;1.42;;;1.20;;
47922;SDS011;33688;44.354;9.228;2023-11-21T02:59:03;3.40;;;1.55;;
47922;SDS011;33688;44.354;9.228;2023-11-21T03:01:30;3.67;;;1.92;;
47922;SDS011;33688;44.354;9.228;2023-11-21T03:03:56;1.98;;;1.60;;
47922;SDS011;33688;44.354;9.228;2023-11-21T03:06:22;1.90;;;1.58;;
47922;SDS011;33688;44.354;9.228;2023-11-21T03:08:48;1.75;;;1.45;;
47922;SDS011;33688;44.354;9.228;2023-11-21T03:11:14;2.78;;;1.95;;
47922;SDS011;33688;44.354;9.228;2023-11-21T03:13:40;2.55;;;2.00;;
47922;SDS011;33688;44.354;9.228;2023-11-21T03:16:09;2.05;;;1.63;;
47922;SDS011;33688;44.354;9.228;2023-11-21T03:18:39;2.88;;;1.67;;
47922;SDS011;33688;44.354;9.228;2023-11-21T03:21:05;3.47;;;1.58;;
47922;SDS011;33688;44.354;9.228;2023-11-21T03:23:34;3.60;;;1.60;;
47922;SDS011;33688;44.354;9.228;2023-11-21T03:26:02;3.75;;;1.90;;
47922;SDS011;33688;44.354;9.228;2023-11-21T03:28:29;2.05;;;1.52;;
47922;SDS011;33688;44.354;9.228;2023-11-21T03:30:55;3.40;;;1.80;;
47922;SDS011;33688;44.354;9.228;2023-11-21T03:33:22;3.00;;;1.83;;
47922;SDS011;33688;44.354;9.228;2023-11-21T03:35:48;1.70;;;1.48;;
47922;SDS011;33688;44.354;9.228;2023-11-21T03:38:15;2.22;;;1.60;;
47922;SDS011;33688;44.354;9.228;2023-11-21T03:40:41;1.63;;;1.30;;
47922;SDS011;33688;44.354;9.228;2023-11-21T03:43:07;2.35;;;1.60;;
47922;SDS011;33688;44.354;9.228;2023-11-21T03:45:33;1.83;;;1.52;;
47922;SDS011;33688;44.354;9.228;2023-11-21T03:47:59;3.58;;;1.85;;
47922;SDS011;33688;44.354;9.228;2023-11-21T03:50:28;2.15;;;1.73;;
47922;SDS011;33688;44.354;9.228;2023-11-21T03:53:00;2.65;;;1.63;;
47922;SDS011;33688;44.354;9.228;2023-11-21T03:55:27;2.17;;;1.55;;
47922;SDS011;33688;44.354;9.228;2023-11-21T03:57:52;3.00;;;1.27;;
47922;SDS011;33688;44.354;9.228;2023-11-21T04:00:18;1.58;;;1.35;;
47922;SDS011;33688;44.354;9.228;2023-11-21T04:02:45;2.33;;;1.55;;
47922;SDS011;33688;44.354;9.228;2023-11-21T04:05:11;2.28;;;1.42;;
47922;SDS011;33688;44.354;9.228;2023-11-21T04:07:37;2.25;;;1.60;;
47922;SDS011;33688;44.354;9.228;2023-11-21T04:10:04;1.92;;;1.60;;
47922;SDS011;33688;44.354;9.228;2023-11-21T04:12:34;2.47;;;1.70;;
47922;SDS011;33688;44.354;9.228;2023-11-21T04:15:02;1.85;;;1.15;;
47922;SDS011;33688;44.354;9.228;2023-11-21T04:17:28;1.58;;;1.27;;
47922;SDS011;33688;44.354;9.228;2023-11-21T04:19:54;1.25;;;1.15;;
47922;SDS011;33688;44.354;9.228;2023-11-21T04:22:20;2.05;;;1.52;;
47922;SDS011;33688;44.354;9.228;2023-11-21T04:24:46;2.13;;;1.65;;
47922;SDS011;33688;44.354;9.228;2023-11-21T04:27:11;2.17;;;1.50;;
47922;SDS011;33688;44.354;9.228;2023-11-21T04:29:39;2.35;;;1.88;;
47922;SDS011;33688;44.354;9.228;2023-11-21T04:32:06;1.88;;;1.52;;
47922;SDS011;33688;44.354;9.228;2023-11-21T04:34:33;1.65;;;1.02;;
47922;SDS011;33688;44.354;9.228;2023-11-21T04:37:00;1.90;;;1.48;;
47922;SDS011;33688;44.354;9.228;2023-11-21T04:39:25;1.73;;;1.30;;
47922;SDS011;33688;44.354;9.228;2023-11-21T04:41:52;1.77;;;1.65;;
47922;SDS011;33688;44.354;9.228;2023-11-21T04:44:17;1.20;;;1.10;;
47922;SDS011;33688;44.354;9.228;2023-11-21T04:46:45;1.58;;;1.23;;
47922;SDS011;33688;44.354;9.228;2023-11-21T04:49:11;1.90;;;1.60;;
47922;SDS011;33688;44.354;9.228;2023-11-21T04:51:37;2.00;;;1.25;;
47922;SDS011;33688;44.354;9.228;2023-11-21T04:54:03;1.70;;;1.30;;
47922;SDS011;33688;44.354;9.228;2023-11-21T04:56:31;2.33;;;1.40;;
47922;SDS011;33688;44.354;9.228;2023-11-21T04:58:56;2.25;;;1.60;;
47922;SDS011;33688;44.354;9.228;2023-11-21T05:01:22;1.50;;;1.40;;
47922;SDS011;33688;44.354;9.228;2023-11-21T05:03:48;1.38;;;1.27;;
47922;SDS011;33688;44.354;9.228;2023-11-21T05:06:14;1.40;;;1.30;;
47922;SDS011;33688;44.354;9.228;2023-11-21T05:08:40;1.77;;;1.23;;
47922;SDS011;33688;44.354;9.228;2023-11-21T05:11:06;2.25;;;1.30;;
47922;SDS011;33688;44.354;9.228;2023-11-21T05:13:36;2.05;;;1.55;;
47922;SDS011;33688;44.354;9.228;2023-11-21T05:16:02;1.35;;;1.20;;
47922;SDS011;33688;44.354;9.228;2023-11-21T05:18:32;2.13;;;1.13;;
47922;SDS011;33688;44.354;9.228;2023-11-21T05:20:59;1.55;;;1.30;;
47922;SDS011;33688;44.354;9.228;2023-11-21T05:23:26;1.63;;;1.52;;
47922;SDS011;33688;44.354;9.228;2023-11-21T05:25:52;1.58;;;1.33;;
47922;SDS011;33688;44.354;9.228;2023-11-21T05:28:18;2.00;;;1.58;;
47922;SDS011;33688;44.354;9.228;2023-11-21T05:30:44;1.40;;;1.30;;
47922;SDS011;33688;44.354;9.228;2023-11-21T05:33:10;2.33;;;1.38;;
47922;SDS011;33688;44.354;9.228;2023-11-21T05:35:36;2.05;;;1.55;;
47922;SDS011;33688;44.354;9.228;2023-11-21T05:38:01;1.35;;;1.25;;
47922;SDS011;33688;44.354;9.228;2023-11-21T05:40:27;1.67;;;1.23;;
47922;SDS011;33688;44.354;9.228;2023-11-21T05:42:55;1.27;;;1.15;;
47922;SDS011;33688;44.354;9.228;2023-11-21T05:45:21;2.38;;;1.40;;
47922;SDS011;33688;44.354;9.228;2023-11-21T05:47:47;1.92;;;1.70;;
47922;SDS011;33688;44.354;9.228;2023-11-21T05:50:13;1.73;;;1.08;;
47922;SDS011;33688;44.354;9.228;2023-11-21T05:52:42;1.45;;;1.33;;
47922;SDS011;33688;44.354;9.228;2023-11-21T05:55:09;2.15;;;1.50;;
47922;SDS011;33688;44.354;9.228;2023-11-21T05:57:38;2.13;;;1.30;;
47922;SDS011;33688;44.354;9.228;2023-11-21T06:00:05;2.00;;;1.27;;
47922;SDS011;33688;44.354;9.228;2023-11-21T06:02:38;1.38;;;1.25;;
47922;SDS011;33688;44.354;9.228;2023-11-21T06:05:05;2.25;;;1.35;;
47922;SDS011;33688;44.354;9.228;2023-11-21T06:07:32;1.75;;;1.25;;
47922;SDS011;33688;44.354;9.228;2023-11-21T06:09:58;1.52;;;1.33;;
47922;SDS011;33688;44.354;9.228;2023-11-21T06:12:24;1.42;;;1.15;;
47922;SDS011;33688;44.354;9.228;2023-11-21T06:14:50;1.10;;;1.00;;
47922;SDS011;33688;44.354;9.228;2023-11-21T06:17:16;2.20;;;1.45;;
47922;SDS011;33688;44.354;9.228;2023-11-21T06:19:43;1.30;;;1.10;;
47922;SDS011;33688;44.354;9.228;2023-11-21T06:22:11;1.25;;;1.15;;
47922;SDS011;33688;44.354;9.228;2023-11-21T06:24:37;1.70;;;1.25;;
47922;SDS011;33688;44.354;9.228;2023-11-21T06:27:03;1.38;;;0.90;;
47922;SDS011;33688;44.354;9.228;2023-11-21T06:29:30;1.38;;;1.08;;
47922;SDS011;33688;44.354;9.228;2023-11-21T06:31:57;1.05;;;0.95;;
47922;SDS011;33688;44.354;9.228;2023-11-21T06:34:23;2.00;;;1.33;;
47922;SDS011;33688;44.354;9.228;2023-11-21T06:36:49;1.83;;;1.27;;
47922;SDS011;33688;44.354;9.228;2023-11-21T06:39:15;1.58;;;1.35;;
47922;SDS011;33688;44.354;9.228;2023-11-21T06:41:42;1.33;;;1.10;;
47922;SDS011;33688;44.354;9.228;2023-11-21T06:44:08;1.58;;;0.98;;
47922;SDS011;33688;44.354;9.228;2023-11-21T06:46:34;1.52;;;1.20;;
47922;SDS011;33688;44.354;9.228;2023-11-21T06:49:00;1.50;;;1.20;;
47922;SDS011;33688;44.354;9.228;2023-11-21T06:51:25;2.03;;;1.42;;
47922;SDS011;33688;44.354;9.228;2023-11-21T06:53:52;1.40;;;0.98;;
47922;SDS011;33688;44.354;9.228;2023-11-21T06:56:18;1.60;;;1.15;;
47922;SDS011;33688;44.354;9.228;2023-11-21T06:58:45;1.92;;;1.25;;
47922;SDS011;33688;44.354;9.228;2023-11-21T07:01:15;1.25;;;1.10;;
47922;SDS011;33688;44.354;9.228;2023-11-21T07:03:41;1.95;;;1.08;;
47922;SDS011;33688;44.354;9.228;2023-11-21T07:06:07;1.65;;;1.15;;
47922;SDS011;33688;44.354;9.228;2023-11-21T07:08:34;1.40;;;1.17;;
47922;SDS011;33688;44.354;9.228;2023-11-21T07:11:00;1.05;;;0.95;;
47922;SDS011;33688;44.354;9.228;2023-11-21T07:13:28;1.15;;;1.05;;
47922;SDS011;33688;44.354;9.228;2023-11-21T07:15:54;1.48;;;0.90;;
47922;SDS011;33688;44.354;9.228;2023-11-21T07:18:20;1.83;;;1.10;;
47922;SDS011;33688;44.354;9.228;2023-11-21T07:20:46;2.05;;;1.30;;
47922;SDS011;33688;44.354;9.228;2023-11-21T07:23:12;0.98;;;0.85;;
47922;SDS011;33688;44.354;9.228;2023-11-21T07:25:38;1.83;;;1.25;;
47922;SDS011;33688;44.354;9.228;2023-11-21T07:28:04;1.80;;;1.23;;
47922;SDS011;33688;44.354;9.228;2023-11-21T07:30:30;1.67;;;1.33;;
47922;SDS011;33688;44.354;9.228;2023-11-21T07:32:58;1.38;;;1.00;;
47922;SDS011;33688;44.354;9.228;2023-11-21T07:35:25;1.63;;;1.17;;
47922;SDS011;33688;44.354;9.228;2023-11-21T07:37:51;1.73;;;1.25;;
47922;SDS011;33688;44.354;9.228;2023-11-21T07:40:18;1.58;;;1.33;;
47922;SDS011;33688;44.354;9.228;2023-11-21T07:42:44;3.05;;;1.50;;
47922;SDS011;33688;44.354;9.228;2023-11-21T07:45:11;1.50;;;1.33;;
47922;SDS011;33688;44.354;9.228;2023-11-21T07:47:37;2.22;;;1.60;;
47922;SDS011;33688;44.354;9.228;2023-11-21T07:50:04;3.65;;;2.58;;
47922;SDS011;33688;44.354;9.228;2023-11-21T07:52:32;4.65;;;2.85;;
47922;SDS011;33688;44.354;9.228;2023-11-21T07:54:58;17.25;;;4.35;;
47922;SDS011;33688;44.354;9.228;2023-11-21T07:57:24;16.20;;;3.95;;
47922;SDS011;33688;44.354;9.228;2023-11-21T07:59:51;23.73;;;6.35;;
47922;SDS011;33688;44.354;9.228;2023-11-21T08:02:19;20.98;;;4.68;;
47922;SDS011;33688;44.354;9.228;2023-11-21T08:04:45;33.28;;;4.63;;
47922;SDS011;33688;44.354;9.228;2023-11-21T08:07:15;26.08;;;5.45;;
47922;SDS011;33688;44.354;9.228;2023-11-21T08:09:42;21.70;;;4.70;;
47922;SDS011;33688;44.354;9.228;2023-11-21T08:12:10;22.15;;;4.30;;
47922;SDS011;33688;44.354;9.228;2023-11-21T08:14:36;29.98;;;5.82;;
47922;SDS011;33688;44.354;9.228;2023-11-21T08:17:04;34.90;;;5.95;;
47922;SDS011;33688;44.354;9.228;2023-11-21T08:19:29;27.00;;;5.47;;
47922;SDS011;33688;44.354;9.228;2023-11-21T08:21:58;32.15;;;5.47;;
47922;SDS011;33688;44.354;9.228;2023-11-21T08:24:24;29.13;;;6.65;;
47922;SDS011;33688;44.354;9.228;2023-11-21T08:26:50;26.08;;;5.25;;
47922;SDS011;33688;44.354;9.228;2023-11-21T08:29:19;30.52;;;7.10;;
47922;SDS011;33688;44.354;9.228;2023-11-21T08:31:46;16.33;;;5.20;;
47922;SDS011;33688;44.354;9.228;2023-11-21T08:34:12;28.35;;;5.75;;
47922;SDS011;33688;44.354;9.228;2023-11-21T08:36:42;23.55;;;5.53;;
47922;SDS011;33688;44.354;9.228;2023-11-21T08:39:10;21.27;;;5.03;;
47922;SDS011;33688;44.354;9.228;2023-11-21T08:41:36;21.60;;;4.85;;
47922;SDS011;33688;44.354;9.228;2023-11-21T08:44:02;20.95;;;4.43;;
47922;SDS011;33688;44.354;9.228;2023-11-21T08:46:32;25.63;;;5.15;;
47922;SDS011;33688;44.354;9.228;2023-11-21T08:49:00;17.92;;;5.63;;
47922;SDS011;33688;44.354;9.228;2023-11-21T08:51:27;11.07;;;4.18;;
47922;SDS011;33688;44.354;9.228;2023-11-21T08:53:52;23.98;;;5.03;;
47922;SDS011;33688;44.354;9.228;2023-11-21T08:56:18;22.02;;;5.85;;
47922;SDS011;33688;44.354;9.228;2023-11-21T08:58:45;14.13;;;4.60;;
47922;SDS011;33688;44.354;9.228;2023-11-21T09:01:14;20.65;;;3.90;;
47922;SDS011;33688;44.354;9.228;2023-11-21T09:03:39;21.83;;;4.85;;
47922;SDS011;33688;44.354;9.228;2023-11-21T09:06:05;20.58;;;5.93;;
47922;SDS011;33688;44.354;9.228;2023-11-21T09:08:34;22.55;;;4.68;;
47922;SDS011;33688;44.354;9.228;2023-11-21T09:11:00;20.10;;;4.80;;
47922;SDS011;33688;44.354;9.228;2023-11-21T09:13:27;13.10;;;4.38;;
47922;SDS011;33688;44.354;9.228;2023-11-21T09:15:53;19.48;;;4.53;;
47922;SDS011;33688;44.354;9.228;2023-11-21T09:18:19;11.93;;;3.72;;
47922;SDS011;33688;44.354;9.228;2023-11-21T09:20:45;17.25;;;4.15;;
47922;SDS011;33688;44.354;9.228;2023-11-21T09:23:11;18.48;;;4.30;;
47922;SDS011;33688;44.354;9.228;2023-11-21T09:25:37;13.75;;;3.78;;
47922;SDS011;33688;44.354;9.228;2023-11-21T09:28:06;14.05;;;3.88;;
47922;SDS011;33688;44.354;9.228;2023-11-21T09:30:35;18.10;;;4.60;;
47922;SDS011;33688;44.354;9.228;2023-11-21T09:33:01;13.93;;;4.68;;
47922;SDS011;33688;44.354;9.228;2023-11-21T09:35:27;12.85;;;3.55;;
47922;SDS011;33688;44.354;9.228;2023-11-21T09:37:53;14.50;;;4.00;;
47922;SDS011;33688;44.354;9.228;2023-11-21T09:40:21;14.77;;;4.30;;
47922;SDS011;33688;44.354;9.228;2023-11-21T09:42:53;17.52;;;3.83;;
47922;SDS011;33688;44.354;9.228;2023-11-21T09:45:28;11.02;;;3.97;;
47922;SDS011;33688;44.354;9.228;2023-11-21T09:47:59;11.55;;;3.25;;
47922;SDS011;33688;44.354;9.228;2023-11-21T09:50:25;12.25;;;4.35;;
47922;SDS011;33688;44.354;9.228;2023-11-21T09:53:09;8.90;;;3.22;;
47922;SDS011;33688;44.354;9.228;2023-11-21T09:55:57;19.80;;;3.75;;
47922;SDS011;33688;44.354;9.228;2023-11-21T09:58:25;10.38;;;3.35;;
47922;SDS011;33688;44.354;9.228;2023-11-21T10:00:55;9.98;;;3.28;;
47922;SDS011;33688;44.354;9.228;2023-11-21T10:03:24;15.82;;;4.40;;
47922;SDS011;33688;44.354;9.228;2023-11-21T10:05:50;28.45;;;9.05;;
47922;SDS011;33688;44.354;9.228;2023-11-21T10:08:18;35.33;;;10.65;;
47922;SDS011;33688;44.354;9.228;2023-11-21T10:10:49;33.67;;;12.25;;
47922;SDS011;33688;44.354;9.228;2023-11-21T10:13:18;35.15;;;12.27;;
47922;SDS011;33688;44.354;9.228;2023-11-21T10:15:49;32.90;;;11.57;;
47922;SDS011;33688;44.354;9.228;2023-11-21T10:18:17;35.88;;;10.18;;
47922;SDS011;33688;44.354;9.228;2023-11-21T10:20:44;25.08;;;8.70;;
47922;SDS011;33688;44.354;9.228;2023-11-21T10:23:18;33.35;;;9.93;;
47922;SDS011;33688;44.354;9.228;2023-11-21T10:25:46;17.40;;;7.45;;
47922;SDS011;33688;44.354;9.228;2023-11-21T10:28:12;23.33;;;7.95;;
47922;SDS011;33688;44.354;9.228;2023-11-21T10:30:38;24.02;;;7.47;;
47922;SDS011;33688;44.354;9.228;2023-11-21T10:33:06;24.25;;;6.43;;
47922;SDS011;33688;44.354;9.228;2023-11-21T10:35:42;20.13;;;6.72;;
47922;SDS011;33688;44.354;9.228;2023-11-21T10:38:12;13.20;;;5.85;;
47922;SDS011;33688;44.354;9.228;2023-11-21T10:40:41;19.60;;;5.25;;
47922;SDS011;33688;44.354;9.228;2023-11-21T10:43:10;13.45;;;4.28;;
47922;SDS011;33688;44.354;9.228;2023-11-21T10:45:40;13.38;;;4.68;;
47922;SDS011;33688;44.354;9.228;2023-11-21T10:48:08;10.88;;;4.38;;
47922;SDS011;33688;44.354;9.228;2023-11-21T10:50:42;12.57;;;4.40;;
47922;SDS011;33688;44.354;9.228;2023-11-21T10:53:12;9.57;;;3.53;;
47922;SDS011;33688;44.354;9.228;2023-11-21T10:55:39;15.00;;;4.50;;
47922;SDS011;33688;44.354;9.228;2023-11-21T10:58:05;6.43;;;3.13;;
47922;SDS011;33688;44.354;9.228;2023-11-21T11:00:33;11.73;;;4.15;;
47922;SDS011;33688;44.354;9.228;2023-11-21T11:02:59;9.65;;;3.53;;
47922;SDS011;33688;44.354;9.228;2023-11-21T11:05:26;6.13;;;3.40;;
47922;SDS011;33688;44.354;9.228;2023-11-21T11:08:04;9.50;;;3.90;;
47922;SDS011;33688;44.354;9.228;2023-11-21T11:10:38;8.50;;;3.65;;
47922;SDS011;33688;44.354;9.228;2023-11-21T11:13:04;12.40;;;3.55;;
47922;SDS011;33688;44.354;9.228;2023-11-21T11:15:34;6.72;;;3.05;;
47922;SDS011;33688;44.354;9.228;2023-11-21T11:18:02;9.73;;;3.28;;
47922;SDS011;33688;44.354;9.228;2023-11-21T11:20:31;9.75;;;3.83;;
47922;SDS011;33688;44.354;9.228;2023-11-21T11:28:18;6.70;;;3.30;;
47922;SDS011;33688;44.354;9.228;2023-11-21T11:31:00;8.13;;;3.30;;
47922;SDS011;33688;44.354;9.228;2023-11-21T11:33:36;7.32;;;2.65;;
47922;SDS011;33688;44.354;9.228;2023-11-21T11:38:58;7.47;;;2.80;;
47922;SDS011;33688;44.354;9.228;2023-11-21T11:41:27;5.63;;;2.97;;
47922;SDS011;33688;44.354;9.228;2023-11-21T11:43:58;12.00;;;2.70;;
47922;SDS011;33688;44.354;9.228;2023-11-21T11:46:41;10.05;;;3.10;;
47922;SDS011;33688;44.354;9.228;2023-11-21T11:49:28;6.05;;;2.60;;
47922;SDS011;33688;44.354;9.228;2023-11-21T11:55:23;8.25;;;3.35;;
47922;SDS011;33688;44.354;9.228;2023-11-21T11:57:50;7.25;;;2.83;;
47922;SDS011;33688;44.354;9.228;2023-11-21T12:02:52;6.17;;;2.60;;
47922;SDS011;33688;44.354;9.228;2023-11-21T12:05:29;4.93;;;2.35;;
47922;SDS011;33688;44.354;9.228;2023-11-21T12:08:03;5.35;;;2.58;;
47922;SDS011;33688;44.354;9.228;2023-11-21T12:10:35;8.20;;;3.00;;
47922;SDS011;33688;44.354;9.228;2023-11-21T12:13:05;6.05;;;3.25;;
47922;SDS011;33688;44.354;9.228;2023-11-21T12:15:33;4.72;;;2.42;;
47922;SDS011;33688;44.354;9.228;2023-11-21T12:18:00;5.35;;;2.80;;
47922;SDS011;33688;44.354;9.228;2023-11-21T12:20:27;3.95;;;2.50;;
47922;SDS011;33688;44.354;9.228;2023-11-21T12:22:57;6.03;;;2.88;;
47922;SDS011;33688;44.354;9.228;2023-11-21T12:25:28;9.50;;;2.78;;
47922;SDS011;33688;44.354;9.228;2023-11-21T12:27:57;3.78;;;2.20;;
47922;SDS011;33688;44.354;9.228;2023-11-21T12:30:28;4.13;;;2.53;;
47922;SDS011;33688;44.354;9.228;2023-11-21T12:32:57;5.35;;;2.42;;
47922;SDS011;33688;44.354;9.228;2023-11-21T12:35:26;3.78;;;2.10;;
47922;SDS011;33688;44.354;9.228;2023-11-21T12:37:59;3.45;;;2.22;;
47922;SDS011;33688;44.354;9.228;2023-11-21T12:40:28;5.00;;;2.22;;
47922;SDS011;33688;44.354;9.228;2023-11-21T12:42:57;6.85;;;2.58;;
47922;SDS011;33688;44.354;9.228;2023-11-21T12:45:27;6.38;;;2.30;;
47922;SDS011;33688;44.354;9.228;2023-11-21T12:47:55;4.93;;;2.65;;
47922;SDS011;33688;44.354;9.228;2023-11-21T12:50:32;4.18;;;2.35;;
47922;SDS011;33688;44.354;9.228;2023-11-21T12:55:33;2.83;;;1.98;;
47922;SDS011;33688;44.354;9.228;2023-11-21T12:58:03;7.80;;;2.20;;
47922;SDS011;33688;44.354;9.228;2023-11-21T13:03:08;3.53;;;2.17;;
47922;SDS011;33688;44.354;9.228;2023-11-21T13:05:47;3.90;;;2.55;;
47922;SDS011;33688;44.354;9.228;2023-11-21T13:08:20;5.75;;;2.42;;
47922;SDS011;33688;44.354;9.228;2023-11-21T13:10:51;4.40;;;2.00;;
47922;SDS011;33688;44.354;9.228;2023-11-21T13:13:23;4.50;;;2.67;;
47922;SDS011;33688;44.354;9.228;2023-11-21T13:15:50;3.83;;;2.55;;
47922;SDS011;33688;44.354;9.228;2023-11-21T13:18:19;5.20;;;2.35;;
47922;SDS011;33688;44.354;9.228;2023-11-21T13:20:46;4.82;;;2.30;;
47922;SDS011;33688;44.354;9.228;2023-11-21T13:23:12;7.50;;;2.65;;
47922;SDS011;33688;44.354;9.228;2023-11-21T13:25:39;4.28;;;2.10;;
47922;SDS011;33688;44.354;9.228;2023-11-21T13:28:08;3.33;;;2.22;;
47922;SDS011;33688;44.354;9.228;2023-11-21T13:30:37;4.85;;;2.45;;
47922;SDS011;33688;44.354;9.228;2023-11-21T13:33:05;4.47;;;2.63;;
47922;SDS011;33688;44.354;9.228;2023-11-21T13:35:33;4.15;;;2.00;;
47922;SDS011;33688;44.354;9.228;2023-11-21T13:38:11;3.60;;;2.42;;
47922;SDS011;33688;44.354;9.228;2023-11-21T13:40:38;1.85;;;1.65;;
47922;SDS011;33688;44.354;9.228;2023-11-21T13:43:12;4.10;;;2.20;;
47922;SDS011;33688;44.354;9.228;2023-11-21T13:45:44;4.50;;;2.10;;
47922;SDS011;33688;44.354;9.228;2023-11-21T13:48:12;6.25;;;1.85;;
47922;SDS011;33688;44.354;9.228;2023-11-21T13:50:47;5.63;;;2.70;;
47922;SDS011;33688;44.354;9.228;2023-11-21T13:53:23;3.15;;;1.70;;
47922;SDS011;33688;44.354;9.228;2023-11-21T13:55:49;3.95;;;2.08;;
47922;SDS011;33688;44.354;9.228;2023-11-21T13:58:26;4.70;;;2.17;;
47922;SDS011;33688;44.354;9.228;2023-11-21T14:01:06;3.63;;;1.90;;
47922;SDS011;33688;44.354;9.228;2023-11-21T14:03:50;2.55;;;1.88;;
47922;SDS011;33688;44.354;9.228;2023-11-21T14:08:53;2.55;;;2.17;;
47922;SDS011;33688;44.354;9.228;2023-11-21T14:11:22;2.47;;;2.28;;
47922;SDS011;33688;44.354;9.228;2023-11-21T14:13:47;2.75;;;1.35;;
47922;SDS011;33688;44.354;9.228;2023-11-21T14:16:15;4.05;;;2.40;;
47922;SDS011;33688;44.354;9.228;2023-11-21T14:18:45;3.15;;;2.03;;
47922;SDS011;33688;44.354;9.228;2023-11-21T14:21:29;5.80;;;2.15;;
47922;SDS011;33688;44.354;9.228;2023-11-21T14:23:54;4.10;;;1.73;;
47922;SDS011;33688;44.354;9.228;2023-11-21T14:26:20;6.53;;;2.10;;
47922;SDS011;33688;44.354;9.228;2023-11-21T14:28:50;4.20;;;2.90;;
47922;SDS011;33688;44.354;9.228;2023-11-21T14:31:16;6.95;;;1.70;;
47922;SDS011;33688;44.354;9.228;2023-11-21T14:33:43;2.45;;;2.05;;
47922;SDS011;33688;44.354;9.228;2023-11-21T14:36:11;4.00;;;1.70;;
47922;SDS011;33688;44.354;9.228;2023-11-21T14:38:37;6.15;;;1.92;;
47922;SDS011;33688;44.354;9.228;2023-11-21T14:41:05;4.97;;;2.17;;
47922;SDS011;33688;44.354;9.228;2023-11-21T14:43:35;4.72;;;1.90;;
47922;SDS011;33688;44.354;9.228;2023-11-21T14:48:35;3.85;;;2.00;;
47922;SDS011;33688;44.354;9.228;2023-11-21T14:51:21;2.65;;;1.67;;
47922;SDS011;33688;44.354;9.228;2023-11-21T14:53:57;4.95;;;1.77;;
47922;SDS011;33688;44.354;9.228;2023-11-21T14:56:34;3.35;;;1.95;;
47922;SDS011;33688;44.354;9.228;2023-11-21T14:59:02;4.38;;;1.70;;
47922;SDS011;33688;44.354;9.228;2023-11-21T15:01:34;4.22;;;2.28;;
47922;SDS011;33688;44.354;9.228;2023-11-21T15:04:19;3.47;;;2.20;;
47922;SDS011;33688;44.354;9.228;2023-11-21T15:07:04;3.22;;;1.90;;
47922;SDS011;33688;44.354;9.228;2023-11-21T15:09:32;2.92;;;1.88;;
47922;SDS011;33688;44.354;9.228;2023-11-21T15:12:06;7.30;;;2.22;;
47922;SDS011;33688;44.354;9.228;2023-11-21T15:14:47;4.25;;;1.73;;
47922;SDS011;33688;44.354;9.228;2023-11-21T15:17:22;7.27;;;2.43;;